Town N Country, Florida
Current Conditions -  °F | °C
As of 6:53 PM on Friday 24 Oct 2014 (Local Time) from KTPA Reporting Station
Few Clouds Few Clouds  
Wind Chill: 77°   Ceiling: Unl
Heat Index: 79°   Visibility: 10mi
Dew Point: 56°   Wind: 8mph
Humidity: 48%   Direction: 20°NNE
Pressure: 29.91"   Gusts: NA
Location:  28.0044°N, 82.584°W
Report Text: KTPA 242253Z 02007KT 10SM FEW050 25/13 A2991 RMK AO2 SLP127 T02500133
Loading
Personal Weather Stations






























Interactive Weather Map
Tropical Storm Tracking
New forecast layout! Learn more

10-Day Weather Forecast

Advertisements
Track Severe Weather on mobile